createdAt,value
2022-12-09T00:01:08.066Z,5.35
2022-12-09T00:03:38.076Z,5.51
2022-12-09T00:06:09.897Z,5.65
2022-12-09T00:08:37.920Z,5.60
2022-12-09T00:11:08.732Z,5.62
2022-12-09T00:13:36.964Z,5.65
2022-12-09T00:16:07.391Z,5.40
2022-12-09T00:18:35.840Z,5.40
2022-12-09T00:21:14.973Z,5.62
2022-12-09T00:23:43.398Z,5.35
2022-12-09T00:26:11.696Z,5.66
2022-12-09T00:28:40.482Z,5.71
2022-12-09T00:31:09.250Z,5.66
2022-12-09T00:33:37.726Z,5.81
2022-12-09T00:36:06.928Z,5.77
2022-12-09T00:38:36.786Z,5.60
2022-12-09T00:41:04.997Z,5.78
2022-12-09T00:43:33.659Z,5.80
2022-12-09T00:46:02.161Z,5.55
2022-12-09T00:48:31.036Z,5.77
2022-12-09T00:50:58.996Z,5.89
2022-12-09T00:53:26.928Z,5.99
2022-12-09T00:55:56.395Z,5.92
2022-12-09T00:58:24.977Z,5.95
2022-12-09T01:00:53.827Z,5.94
2022-12-09T01:03:22.819Z,6.10
2022-12-09T01:05:51.649Z,6.16
2022-12-09T01:08:19.950Z,6.21
2022-12-09T01:10:48.129Z,5.88
2022-12-09T01:13:17.609Z,5.97
2022-12-09T01:15:46.085Z,6.12
2022-12-09T01:18:14.987Z,6.20
2022-12-09T01:20:43.311Z,6.10
2022-12-09T01:23:11.514Z,6.16
2022-12-09T01:25:40.004Z,6.09
2022-12-09T01:28:07.984Z,6.10
2022-12-09T01:30:37.241Z,6.07
2022-12-09T01:33:05.387Z,6.02
2022-12-09T01:35:33.520Z,5.96
2022-12-09T01:38:01.760Z,6.00
2022-12-09T01:40:29.863Z,5.93
2022-12-09T01:42:57.782Z,5.94
2022-12-09T01:45:43.034Z,5.99
2022-12-09T01:48:14.435Z,5.97
2022-12-09T01:50:47.467Z,6.04
2022-12-09T01:53:18.156Z,6.02
2022-12-09T01:55:46.887Z,5.98
2022-12-09T01:58:16.118Z,6.03
2022-12-09T02:00:45.904Z,6.06
2022-12-09T02:03:14.371Z,6.02
2022-12-09T02:05:43.359Z,5.89
2022-12-09T02:08:13.941Z,5.39
2022-12-09T02:10:49.488Z,5.64
2022-12-09T02:13:26.494Z,5.79
2022-12-09T02:15:59.693Z,5.82
2022-12-09T02:18:34.934Z,5.84
2022-12-09T02:21:08.130Z,5.86
2022-12-09T02:23:41.355Z,5.89
2022-12-09T02:26:18.613Z,5.95
2022-12-09T02:29:02.661Z,5.98
2022-12-09T02:31:50.882Z,5.99
2022-12-09T02:34:21.631Z,6.01
2022-12-09T02:36:59.039Z,5.92
2022-12-09T02:39:34.313Z,5.95
2022-12-09T02:42:05.548Z,5.88
2022-12-09T02:44:35.219Z,5.95
2022-12-09T02:47:06.290Z,5.87
2022-12-09T02:49:37.342Z,5.95
2022-12-09T02:52:07.113Z,5.92
2022-12-09T02:54:38.045Z,5.94
2022-12-09T02:57:13.080Z,5.95
2022-12-09T02:59:40.962Z,6.01
2022-12-09T03:02:21.700Z,6.12
2022-12-09T03:05:04.489Z,6.04
2022-12-09T03:07:42.070Z,6.05
2022-12-09T03:10:15.876Z,6.08
2022-12-09T03:12:52.288Z,6.11
2022-12-09T03:15:30.058Z,6.07
2022-12-09T03:18:00.066Z,5.83
2022-12-09T03:20:32.186Z,5.95
2022-12-09T03:23:03.538Z,5.79
2022-12-09T03:25:35.566Z,5.95
2022-12-09T03:28:06.177Z,6.15
2022-12-09T03:30:37.901Z,6.12
2022-12-09T03:33:06.282Z,6.14
2022-12-09T03:35:39.234Z,6.18
2022-12-09T03:38:11.569Z,5.93
2022-12-09T03:40:41.493Z,6.21
2022-12-09T03:43:15.203Z,6.20
2022-12-09T03:45:43.947Z,6.13
2022-12-09T03:48:12.719Z,6.12
2022-12-09T03:50:48.474Z,6.09
2022-12-09T03:53:21.613Z,5.93
2022-12-09T03:55:58.827Z,5.95
2022-12-09T03:58:29.050Z,5.86
2022-12-09T04:00:57.396Z,5.85
2022-12-09T04:03:25.581Z,5.85
2022-12-09T04:05:55.286Z,5.70
2022-12-09T04:08:23.384Z,5.79
2022-12-09T04:10:51.458Z,5.92
2022-12-09T04:13:19.770Z,5.92
2022-12-09T04:15:47.693Z,6.04
2022-12-09T04:18:15.692Z,6.05
2022-12-09T04:20:44.026Z,6.03
2022-12-09T04:23:13.404Z,6.07
2022-12-09T04:25:41.633Z,5.99
2022-12-09T04:28:09.626Z,6.03
2022-12-09T04:30:37.588Z,6.06
2022-12-09T04:33:05.816Z,6.03
2022-12-09T04:35:33.687Z,6.12
2022-12-09T04:38:01.577Z,6.12
2022-12-09T04:40:30.973Z,6.18
2022-12-09T04:42:58.901Z,6.10
2022-12-09T04:45:26.836Z,6.10
2022-12-09T04:47:55.095Z,6.14
2022-12-09T04:50:23.035Z,6.13
2022-12-09T04:52:51.035Z,6.16
2022-12-09T04:55:19.263Z,6.10
2022-12-09T04:57:48.681Z,6.04
2022-12-09T05:00:18.036Z,6.11
2022-12-09T05:02:46.195Z,6.09
2022-12-09T05:05:14.833Z,5.91
2022-12-09T05:07:43.212Z,6.07
2022-12-09T05:10:12.741Z,6.12
2022-12-09T05:12:41.033Z,6.11
2022-12-09T05:15:12.092Z,5.75
2022-12-09T05:17:40.625Z,6.01
2022-12-09T05:20:10.033Z,6.02
2022-12-09T05:22:38.640Z,6.10
2022-12-09T05:25:07.881Z,6.08
2022-12-09T05:27:36.180Z,6.03
2022-12-09T05:30:04.668Z,5.94
2022-12-09T05:32:34.949Z,6.00
2022-12-09T05:35:03.259Z,6.12
2022-12-09T05:37:31.810Z,6.08
2022-12-09T05:40:31.962Z,6.15
2022-12-09T05:43:20.576Z,6.01
2022-12-09T05:45:49.120Z,6.02
2022-12-09T05:48:18.705Z,5.98
2022-12-09T05:50:46.769Z,6.11
2022-12-09T05:53:14.706Z,6.14
2022-12-09T05:55:42.924Z,6.20
2022-12-09T05:58:10.994Z,6.20
2022-12-09T06:00:39.236Z,6.32
2022-12-09T06:03:07.499Z,6.32
2022-12-09T06:05:38.147Z,6.36
2022-12-09T06:08:07.894Z,6.36
2022-12-09T06:10:36.432Z,6.42
2022-12-09T06:13:04.875Z,6.45
2022-12-09T06:15:35.183Z,6.17
2022-12-09T06:18:03.936Z,6.06
2022-12-09T06:20:32.521Z,6.12
2022-12-09T06:23:01.927Z,6.11
2022-12-09T06:25:30.315Z,6.13
2022-12-09T06:27:58.588Z,6.16
2022-12-09T06:30:26.892Z,6.00
2022-12-09T06:32:54.972Z,5.98
2022-12-09T06:35:23.526Z,5.98
2022-12-09T06:37:52.982Z,5.93
2022-12-09T06:40:23.019Z,5.79
2022-12-09T06:42:52.033Z,5.88
2022-12-09T06:45:21.187Z,5.97
2022-12-09T06:47:49.447Z,5.97
2022-12-09T06:50:18.414Z,6.03
2022-12-09T06:52:47.220Z,6.04
2022-12-09T06:55:15.508Z,6.11
2022-12-09T06:57:45.136Z,6.09
2022-12-09T07:00:14.749Z,6.14
2022-12-09T07:02:43.687Z,6.15
2022-12-09T07:05:12.949Z,6.05
2022-12-09T07:07:41.578Z,6.24
2022-12-09T07:10:11.316Z,6.36
2022-12-09T07:12:39.574Z,6.42
2022-12-09T07:15:11.006Z,6.48
2022-12-09T07:17:39.383Z,6.54
2022-12-09T07:20:09.518Z,6.55
2022-12-09T07:22:37.901Z,6.66
2022-12-09T07:25:07.565Z,6.73
2022-12-09T07:27:36.234Z,6.84
2022-12-09T07:30:04.818Z,6.97
2022-12-09T07:32:34.624Z,7.06
2022-12-09T07:35:02.991Z,6.92
2022-12-09T07:37:31.214Z,6.79
2022-12-09T07:39:59.574Z,6.86
2022-12-09T07:42:28.935Z,7.04
2022-12-09T07:44:57.133Z,7.09
2022-12-09T07:47:25.570Z,7.12
2022-12-09T07:49:55.259Z,7.28
2022-12-09T07:52:28.980Z,7.36
2022-12-09T07:54:59.500Z,7.51
2022-12-09T07:57:27.974Z,7.44
2022-12-09T07:59:56.942Z,7.47
2022-12-09T08:02:25.153Z,7.52
2022-12-09T08:04:55.291Z,7.66
2022-12-09T08:07:23.855Z,7.75
2022-12-09T08:09:53.489Z,7.73
2022-12-09T08:12:21.940Z,7.79
2022-12-09T08:14:50.126Z,7.87
2022-12-09T08:17:18.641Z,7.90
2022-12-09T08:19:47.497Z,7.96
2022-12-09T08:22:17.239Z,8.07
2022-12-09T08:24:45.503Z,7.91
2022-12-09T08:27:13.973Z,8.11
2022-12-09T08:29:42.212Z,8.34
2022-12-09T08:32:12.794Z,8.47
2022-12-09T08:34:41.346Z,8.44
2022-12-09T08:37:09.281Z,8.64
2022-12-09T08:39:39.265Z,8.70
2022-12-09T08:42:07.451Z,8.69
2022-12-09T08:44:35.588Z,8.72
2022-12-09T08:47:03.726Z,8.83
2022-12-09T08:49:32.219Z,8.97
2022-12-09T08:52:00.493Z,8.93
2022-12-09T08:54:28.821Z,9.02
2022-12-09T08:56:59.146Z,9.14
2022-12-09T08:59:27.660Z,9.26
2022-12-09T09:01:55.730Z,9.23
2022-12-09T09:04:24.180Z,9.29
2022-12-09T09:06:53.596Z,9.51
2022-12-09T09:09:22.827Z,9.82
2022-12-09T09:11:51.829Z,10.19
2022-12-09T09:14:21.906Z,10.52
2022-12-09T09:16:50.171Z,10.54
2022-12-09T09:19:20.580Z,10.57
2022-12-09T09:21:49.100Z,10.61
2022-12-09T09:24:19.232Z,10.66
2022-12-09T09:26:49.305Z,10.63
2022-12-09T09:29:20.528Z,10.56
2022-12-09T09:31:54.493Z,10.63
2022-12-09T09:34:24.020Z,11.01
2022-12-09T09:36:52.698Z,11.31
2022-12-09T09:39:22.302Z,11.58
2022-12-09T09:41:53.575Z,11.81
2022-12-09T09:44:27.254Z,11.85
2022-12-09T09:46:58.538Z,12.08
2022-12-09T09:49:35.375Z,12.02
2022-12-09T09:52:08.659Z,12.56
2022-12-09T09:54:37.262Z,12.69
2022-12-09T09:57:14.106Z,13.11
2022-12-09T09:59:54.084Z,13.30
2022-12-09T10:02:39.007Z,13.52
2022-12-09T10:05:20.988Z,13.72
2022-12-09T10:07:53.651Z,13.54
2022-12-09T10:10:39.243Z,13.37
2022-12-09T10:13:20.939Z,13.06
2022-12-09T10:15:59.599Z,12.86
2022-12-09T10:18:34.482Z,12.58
2022-12-09T10:21:03.287Z,12.18
2022-12-09T10:23:33.401Z,12.02
2022-12-09T10:26:06.209Z,11.86
2022-12-09T10:28:37.972Z,11.68
2022-12-09T10:31:07.003Z,11.44
2022-12-09T10:33:39.105Z,11.35
2022-12-09T10:36:08.602Z,11.32
2022-12-09T10:38:43.957Z,11.37
2022-12-09T10:41:39.604Z,11.30
2022-12-09T10:44:19.632Z,11.35
2022-12-09T10:46:48.595Z,11.35
2022-12-09T10:49:23.161Z,11.36
2022-12-09T10:51:54.057Z,11.17
2022-12-09T10:54:33.021Z,11.20
2022-12-09T10:57:22.992Z,11.23
2022-12-09T11:00:08.323Z,11.21
2022-12-09T11:02:36.851Z,11.24
2022-12-09T11:05:26.588Z,11.07
2022-12-09T11:07:57.231Z,11.14
2022-12-09T11:10:28.112Z,11.20
2022-12-09T11:13:03.641Z,11.00
2022-12-09T11:15:38.912Z,10.99
2022-12-09T11:18:09.620Z,11.19
2022-12-09T11:20:40.132Z,11.41
2022-12-09T11:23:19.075Z,11.55
2022-12-09T11:25:54.777Z,11.84
2022-12-09T11:28:29.317Z,12.29
2022-12-09T11:33:52.051Z,13.20
2022-12-09T11:36:28.630Z,13.19
2022-12-09T11:39:17.833Z,13.10
2022-12-09T11:42:08.122Z,13.05
2022-12-09T11:44:39.850Z,12.71
2022-12-09T11:47:10.532Z,12.47
2022-12-09T11:49:49.461Z,12.38
2022-12-09T11:52:28.305Z,12.38
2022-12-09T11:55:16.454Z,12.47
2022-12-09T11:57:52.358Z,12.34
2022-12-09T12:00:24.432Z,12.29
2022-12-09T12:03:00.150Z,12.18
2022-12-09T12:05:34.116Z,12.30
2022-12-09T12:08:17.391Z,12.39
2022-12-09T12:10:48.637Z,12.40
2022-12-09T12:13:22.167Z,12.43
2022-12-09T12:15:56.614Z,12.48
2022-12-09T12:18:24.892Z,12.64
2022-12-09T12:21:17.170Z,12.64
2022-12-09T12:24:12.866Z,12.42
2022-12-09T12:26:48.778Z,12.46
2022-12-09T12:29:29.263Z,12.52
2022-12-09T12:32:26.947Z,12.46
2022-12-09T12:35:10.202Z,12.33
2022-12-09T12:37:50.534Z,12.27
2022-12-09T12:40:38.138Z,12.21
2022-12-09T12:43:40.457Z,12.28
2022-12-09T12:46:27.141Z,11.99
2022-12-09T12:49:30.264Z,11.76
2022-12-09T12:52:21.012Z,11.63
2022-12-09T12:55:07.630Z,11.58
2022-12-09T12:57:46.164Z,11.26
2022-12-09T13:00:18.740Z,11.38
2022-12-09T13:03:00.824Z,11.49
2022-12-09T13:05:36.789Z,11.59
2022-12-09T13:08:10.422Z,11.59
2022-12-09T13:10:43.151Z,11.60
2022-12-09T13:13:17.986Z,11.67
2022-12-09T13:15:51.824Z,11.63
2022-12-09T13:18:24.409Z,11.60
2022-12-09T13:20:54.384Z,11.59
2022-12-09T13:23:42.319Z,11.62
2022-12-09T13:26:26.208Z,11.48
2022-12-09T13:29:03.494Z,11.10
2022-12-09T13:31:33.673Z,11.18
2022-12-09T13:34:19.764Z,11.24
2022-12-09T13:36:50.107Z,11.38
2022-12-09T13:39:51.124Z,11.45
2022-12-09T13:42:52.937Z,11.55
2022-12-09T13:45:28.473Z,11.61
2022-12-09T13:47:57.590Z,11.50
2022-12-09T13:50:29.206Z,11.52
2022-12-09T13:52:59.763Z,11.47
2022-12-09T13:55:50.006Z,11.53
2022-12-09T13:58:48.674Z,11.54
2022-12-09T14:01:24.235Z,11.40
2022-12-09T14:04:02.939Z,11.44
2022-12-09T14:06:34.988Z,11.29
2022-12-09T14:09:20.344Z,11.32
2022-12-09T14:11:50.538Z,11.47
2022-12-09T14:14:58.800Z,11.04
2022-12-09T14:18:03.504Z,10.82
2022-12-09T14:20:40.624Z,11.01
2022-12-09T14:23:18.142Z,11.10
2022-12-09T14:26:33.153Z,11.20
2022-12-09T14:29:01.619Z,11.23
2022-12-09T14:31:58.147Z,11.26
2022-12-09T14:34:35.787Z,11.13
2022-12-09T14:37:30.208Z,11.06
2022-12-09T14:40:17.168Z,11.13
2022-12-09T14:42:51.853Z,11.23
2022-12-09T14:45:30.518Z,11.23
2022-12-09T14:47:58.895Z,11.29
2022-12-09T14:50:30.067Z,11.24
2022-12-09T14:53:01.729Z,11.17
2022-12-09T14:55:31.638Z,11.09
2022-12-09T14:58:02.064Z,11.06
2022-12-09T15:00:33.816Z,11.06
2022-12-09T15:03:31.380Z,10.92
2022-12-09T15:06:00.520Z,11.01
2022-12-09T15:08:31.215Z,10.91
2022-12-09T15:11:00.614Z,10.93
2022-12-09T15:13:29.287Z,10.75
2022-12-09T15:15:57.856Z,10.66
2022-12-09T15:18:27.689Z,10.76
2022-12-09T15:20:57.791Z,10.89
2022-12-09T15:23:32.533Z,10.70
2022-12-09T15:26:02.761Z,10.91
2022-12-09T15:28:33.160Z,10.82
2022-12-09T15:31:03.612Z,10.65
2022-12-09T15:33:42.602Z,10.75
2022-12-09T15:36:13.903Z,10.91
2022-12-09T15:38:47.015Z,10.93
2022-12-09T15:41:34.596Z,10.94
2022-12-09T15:44:07.843Z,10.86
2022-12-09T15:46:38.487Z,10.82
2022-12-09T15:49:07.539Z,10.63
2022-12-09T15:51:39.461Z,10.67
2022-12-09T15:54:14.885Z,10.64
2022-12-09T15:56:46.979Z,10.67
2022-12-09T15:59:20.882Z,10.66
2022-12-09T16:01:51.192Z,10.67
2022-12-09T16:04:22.375Z,10.67
2022-12-09T16:06:51.852Z,10.73
2022-12-09T16:09:22.296Z,10.54
2022-12-09T16:11:51.615Z,10.42
2022-12-09T16:14:21.219Z,10.36
2022-12-09T16:16:51.423Z,10.40
2022-12-09T16:19:34.919Z,10.35
2022-12-09T16:22:06.996Z,10.27
2022-12-09T16:25:06.060Z,10.35
2022-12-09T16:27:29.650Z,10.39
2022-12-09T16:30:02.545Z,10.27
2022-12-09T16:32:34.328Z,10.23
2022-12-09T16:35:19.967Z,10.26
2022-12-09T16:38:16.198Z,10.06
2022-12-09T16:41:10.836Z,10.25
2022-12-09T16:43:54.524Z,10.10
2022-12-09T16:46:40.288Z,10.17
2022-12-09T16:49:08.617Z,10.11
2022-12-09T16:51:38.640Z,10.03
2022-12-09T16:54:19.616Z,9.92
2022-12-09T16:56:53.745Z,9.61
2022-12-09T16:59:21.956Z,9.80
2022-12-09T17:01:50.295Z,9.77
2022-12-09T17:04:22.859Z,9.74
2022-12-09T17:06:51.434Z,9.74
2022-12-09T17:09:19.842Z,9.63
2022-12-09T17:11:54.395Z,9.58
2022-12-09T17:14:23.041Z,9.64
2022-12-09T17:16:51.068Z,9.64
2022-12-09T17:19:19.912Z,9.60
2022-12-09T17:21:47.888Z,9.50
2022-12-09T17:24:15.915Z,9.40
2022-12-09T17:26:45.669Z,9.49
2022-12-09T17:29:15.210Z,9.47
2022-12-09T17:31:43.809Z,9.39
2022-12-09T17:34:12.970Z,9.40
2022-12-09T17:36:41.005Z,9.22
2022-12-09T17:39:08.912Z,9.28
2022-12-09T17:41:36.955Z,9.39
2022-12-09T17:44:05.607Z,9.54
2022-12-09T17:46:35.615Z,9.54
2022-12-09T17:49:04.346Z,9.36
2022-12-09T17:51:35.913Z,9.45
2022-12-09T17:54:04.965Z,9.50
2022-12-09T17:56:33.044Z,9.52
2022-12-09T17:59:03.774Z,9.39
2022-12-09T18:01:34.234Z,9.33
2022-12-09T18:04:08.781Z,9.26
2022-12-09T18:06:38.291Z,9.27
2022-12-09T18:09:08.337Z,9.21
2022-12-09T18:11:37.090Z,9.06
2022-12-09T18:14:05.516Z,9.14
2022-12-09T18:16:33.771Z,9.20
2022-12-09T18:19:09.903Z,9.08
2022-12-09T18:21:38.289Z,9.11
2022-12-09T18:24:06.533Z,9.08
2022-12-09T18:26:39.895Z,9.06
2022-12-09T18:29:09.860Z,8.98
2022-12-09T18:31:38.561Z,8.95
2022-12-09T18:34:08.944Z,8.81
2022-12-09T18:36:37.615Z,8.97
2022-12-09T18:39:06.236Z,8.88
2022-12-09T18:41:36.124Z,8.88
2022-12-09T18:44:08.637Z,8.87
2022-12-09T18:46:38.433Z,8.87
2022-12-09T18:49:09.951Z,8.86
2022-12-09T18:51:39.310Z,8.89
2022-12-09T18:54:08.394Z,8.89
2022-12-09T18:56:36.899Z,8.76
2022-12-09T18:59:07.056Z,8.83
2022-12-09T19:01:39.383Z,8.89
2022-12-09T19:04:13.849Z,8.81
2022-12-09T19:06:43.707Z,8.85
2022-12-09T19:09:13.539Z,8.83
2022-12-09T19:11:43.206Z,8.79
2022-12-09T19:14:12.280Z,8.88
2022-12-09T19:16:40.303Z,8.79
2022-12-09T19:19:11.943Z,8.69
2022-12-09T19:21:41.251Z,8.67
2022-12-09T19:24:13.900Z,8.59
2022-12-09T19:26:43.177Z,8.65
2022-12-09T19:29:12.809Z,8.67
2022-12-09T19:31:44.700Z,8.67
2022-12-09T19:34:16.159Z,8.67
2022-12-09T19:36:45.963Z,8.71
2022-12-09T19:39:15.715Z,8.67
2022-12-09T19:41:45.111Z,8.73
2022-12-09T19:44:31.021Z,8.69
2022-12-09T19:47:05.259Z,8.43
2022-12-09T19:49:34.859Z,8.58
2022-12-09T19:52:03.611Z,8.56
2022-12-09T19:54:31.799Z,8.54
2022-12-09T19:56:59.891Z,8.59
2022-12-09T19:59:28.501Z,8.58
2022-12-09T20:01:57.671Z,8.55
2022-12-09T20:07:18.217Z,8.46
2022-12-09T20:09:46.346Z,8.51
2022-12-09T20:12:14.883Z,8.43
2022-12-09T20:14:43.322Z,8.47
2022-12-09T20:17:12.086Z,8.44
2022-12-09T20:19:40.598Z,8.38
2022-12-09T20:22:10.006Z,8.23
2022-12-09T20:24:40.178Z,8.18
2022-12-09T20:27:08.977Z,8.14
2022-12-09T20:29:38.325Z,7.96
2022-12-09T20:32:07.421Z,8.03
2022-12-09T20:34:36.376Z,7.91
2022-12-09T20:37:04.625Z,7.86
2022-12-09T20:39:32.726Z,7.94
2022-12-09T20:42:02.297Z,8.00
2022-12-09T20:44:32.433Z,7.96
2022-12-09T20:47:00.600Z,7.83
2022-12-09T20:49:29.963Z,8.02
2022-12-09T20:51:59.010Z,8.09
2022-12-09T20:54:27.583Z,8.18
2022-12-09T20:56:55.789Z,7.94
2022-12-09T20:59:25.367Z,8.01
2022-12-09T21:01:54.248Z,8.10
2022-12-09T21:04:23.179Z,7.97
2022-12-09T21:06:51.272Z,8.06
2022-12-09T21:09:22.640Z,8.14
2022-12-09T21:11:51.933Z,8.08
2022-12-09T21:14:20.875Z,8.20
2022-12-09T21:16:51.577Z,8.23
2022-12-09T21:19:24.980Z,8.30
2022-12-09T21:21:54.525Z,8.32
2022-12-09T21:24:25.147Z,8.39
2022-12-09T21:26:56.140Z,8.35
2022-12-09T21:29:31.240Z,8.42
2022-12-09T21:32:02.432Z,8.53
2022-12-09T21:34:30.854Z,8.58
2022-12-09T21:36:58.900Z,8.61
2022-12-09T21:39:28.060Z,8.55
2022-12-09T21:41:56.410Z,8.52
2022-12-09T21:44:25.571Z,8.52
2022-12-09T21:46:53.975Z,8.50
2022-12-09T21:49:23.481Z,8.27
2022-12-09T21:51:51.566Z,8.44
2022-12-09T21:54:19.532Z,8.54
2022-12-09T21:56:47.406Z,8.55
2022-12-09T21:59:15.543Z,8.52
2022-12-09T22:01:44.158Z,8.46
2022-12-09T22:04:16.270Z,8.39
2022-12-09T22:06:48.338Z,8.33
2022-12-09T22:09:18.142Z,8.42
2022-12-09T22:11:46.651Z,8.51
2022-12-09T22:14:14.736Z,8.34
2022-12-09T22:16:45.744Z,8.36
2022-12-09T22:19:18.348Z,8.50
2022-12-09T22:21:48.459Z,8.58
2022-12-09T22:24:17.060Z,8.58
2022-12-09T22:26:45.777Z,8.53
2022-12-09T22:29:15.383Z,8.38
2022-12-09T22:31:44.143Z,8.00
2022-12-09T22:34:13.797Z,8.03
2022-12-09T22:36:42.180Z,8.14
2022-12-09T22:39:13.982Z,8.14
2022-12-09T22:41:43.884Z,8.03
2022-12-09T22:44:13.701Z,8.30
2022-12-09T22:46:42.797Z,8.38
2022-12-09T22:49:13.438Z,8.39
2022-12-09T22:51:41.727Z,8.49
2022-12-09T22:54:11.845Z,8.41
2022-12-09T22:56:42.075Z,8.46
2022-12-09T22:59:10.709Z,8.38
2022-12-09T23:01:39.426Z,8.44
2022-12-09T23:04:09.613Z,8.57
2022-12-09T23:06:39.985Z,8.63
2022-12-09T23:09:10.509Z,8.61
2022-12-09T23:11:39.922Z,8.56
2022-12-09T23:14:08.989Z,8.62
2022-12-09T23:16:37.035Z,8.77
2022-12-09T23:19:04.971Z,8.70
2022-12-09T23:21:36.224Z,8.72
2022-12-09T23:24:07.572Z,8.39
2022-12-09T23:26:37.839Z,8.47
2022-12-09T23:29:08.794Z,8.60
2022-12-09T23:31:39.099Z,8.28
2022-12-09T23:34:08.527Z,8.37
2022-12-09T23:36:38.724Z,8.47
2022-12-09T23:39:12.275Z,8.40
2022-12-09T23:41:41.380Z,8.48
2022-12-09T23:44:13.050Z,8.55
2022-12-09T23:46:41.162Z,8.54
2022-12-09T23:49:09.640Z,8.59
2022-12-09T23:51:41.017Z,8.53
2022-12-09T23:54:09.884Z,8.48
2022-12-09T23:56:40.567Z,8.59
2022-12-09T23:59:13.849Z,8.56
